sensor_id;sensor_type;location;lat;lon;timestamp;temperature;humidity
516;DHT22;244;48.508;9.052;2023-03-07T00:01:04;5.40;6.60
516;DHT22;244;48.508;9.052;2023-03-07T00:03:31;5.40;6.60
516;DHT22;244;48.508;9.052;2023-03-07T00:06:02;5.40;6.60
516;DHT22;244;48.508;9.052;2023-03-07T00:08:29;5.40;6.60
516;DHT22;244;48.508;9.052;2023-03-07T00:10:59;5.40;6.60
516;DHT22;244;48.508;9.052;2023-03-07T00:13:28;5.30;6.60
516;DHT22;244;48.508;9.052;2023-03-07T00:15:59;5.40;6.60
516;DHT22;244;48.508;9.052;2023-03-07T00:18:29;5.30;6.60
516;DHT22;244;48.508;9.052;2023-03-07T00:20:56;5.30;7.30
516;DHT22;244;48.508;9.052;2023-03-07T00:23:24;5.30;6.60
516;DHT22;244;48.508;9.052;2023-03-07T00:25:56;5.30;6.60
516;DHT22;244;48.508;9.052;2023-03-07T00:28:23;5.30;6.60
516;DHT22;244;48.508;9.052;2023-03-07T00:30:50;5.30;6.60
516;DHT22;244;48.508;9.052;2023-03-07T00:33:17;5.30;6.60
516;DHT22;244;48.508;9.052;2023-03-07T00:35:53;5.30;6.60
516;DHT22;244;48.508;9.052;2023-03-07T00:38:20;5.30;6.60
516;DHT22;244;48.508;9.052;2023-03-07T00:40:55;5.30;6.70
516;DHT22;244;48.508;9.052;2023-03-07T00:43:22;5.30;6.70
516;DHT22;244;48.508;9.052;2023-03-07T00:45:49;5.30;6.70
516;DHT22;244;48.508;9.052;2023-03-07T00:48:20;5.30;7.30
516;DHT22;244;48.508;9.052;2023-03-07T00:50:48;5.30;6.70
516;DHT22;244;48.508;9.052;2023-03-07T00:53:16;5.30;6.70
516;DHT22;244;48.508;9.052;2023-03-07T00:55:56;5.30;6.70
516;DHT22;244;48.508;9.052;2023-03-07T00:58:24;5.30;6.70
516;DHT22;244;48.508;9.052;2023-03-07T01:00:51;5.40;6.80
516;DHT22;244;48.508;9.052;2023-03-07T01:03:18;5.40;6.80
516;DHT22;244;48.508;9.052;2023-03-07T01:05:45;5.40;6.80
516;DHT22;244;48.508;9.052;2023-03-07T01:08:14;5.40;6.80
516;DHT22;244;48.508;9.052;2023-03-07T01:10:42;5.40;6.80
516;DHT22;244;48.508;9.052;2023-03-07T01:13:09;5.40;6.80
516;DHT22;244;48.508;9.052;2023-03-07T01:15:37;5.40;6.80
516;DHT22;244;48.508;9.052;2023-03-07T01:18:05;5.40;6.80
516;DHT22;244;48.508;9.052;2023-03-07T01:20:33;5.40;6.80
516;DHT22;244;48.508;9.052;2023-03-07T01:23:00;5.40;6.80
516;DHT22;244;48.508;9.052;2023-03-07T01:25:29;5.40;6.80
516;DHT22;244;48.508;9.052;2023-03-07T01:27:56;5.40;6.80
516;DHT22;244;48.508;9.052;2023-03-07T01:30:23;5.50;6.80
516;DHT22;244;48.508;9.052;2023-03-07T01:32:54;5.50;6.70
516;DHT22;244;48.508;9.052;2023-03-07T01:35:21;5.50;6.80
516;DHT22;244;48.508;9.052;2023-03-07T01:37:49;5.50;6.80
516;DHT22;244;48.508;9.052;2023-03-07T01:40:16;5.50;6.80
516;DHT22;244;48.508;9.052;2023-03-07T01:42:45;5.50;6.80
516;DHT22;244;48.508;9.052;2023-03-07T01:48:16;5.50;6.80
516;DHT22;244;48.508;9.052;2023-03-07T01:50:43;5.50;6.80
516;DHT22;244;48.508;9.052;2023-03-07T01:53:10;5.50;6.80
516;DHT22;244;48.508;9.052;2023-03-07T01:55:37;5.50;6.80
516;DHT22;244;48.508;9.052;2023-03-07T01:58:08;5.50;6.70
516;DHT22;244;48.508;9.052;2023-03-07T02:00:37;5.60;6.70
516;DHT22;244;48.508;9.052;2023-03-07T02:03:09;5.60;6.70
516;DHT22;244;48.508;9.052;2023-03-07T02:05:39;5.60;6.60
516;DHT22;244;48.508;9.052;2023-03-07T02:08:09;5.60;6.60
516;DHT22;244;48.508;9.052;2023-03-07T02:10:38;5.60;6.50
516;DHT22;244;48.508;9.052;2023-03-07T02:13:07;5.60;6.50
516;DHT22;244;48.508;9.052;2023-03-07T02:15:35;5.60;6.50
516;DHT22;244;48.508;9.052;2023-03-07T02:18:03;5.60;6.50
516;DHT22;244;48.508;9.052;2023-03-07T02:20:37;5.60;6.40
516;DHT22;244;48.508;9.052;2023-03-07T02:23:06;5.60;6.50
516;DHT22;244;48.508;9.052;2023-03-07T02:25:42;5.60;6.50
516;DHT22;244;48.508;9.052;2023-03-07T02:28:14;5.50;6.40
516;DHT22;244;48.508;9.052;2023-03-07T02:30:53;5.50;6.40
516;DHT22;244;48.508;9.052;2023-03-07T02:33:20;5.50;6.40
516;DHT22;244;48.508;9.052;2023-03-07T02:35:52;5.50;6.40
516;DHT22;244;48.508;9.052;2023-03-07T02:38:20;5.50;6.40
516;DHT22;244;48.508;9.052;2023-03-07T02:40:47;5.40;6.30
516;DHT22;244;48.508;9.052;2023-03-07T02:43:16;5.40;6.30
516;DHT22;244;48.508;9.052;2023-03-07T02:45:44;5.40;6.40
516;DHT22;244;48.508;9.052;2023-03-07T02:48:10;5.30;6.30
516;DHT22;244;48.508;9.052;2023-03-07T02:50:37;5.30;6.40
516;DHT22;244;48.508;9.052;2023-03-07T02:53:04;5.20;6.40
516;DHT22;244;48.508;9.052;2023-03-07T02:55:31;5.20;6.40
516;DHT22;244;48.508;9.052;2023-03-07T02:58:00;5.10;6.40
516;DHT22;244;48.508;9.052;2023-03-07T03:00:31;5.10;6.50
516;DHT22;244;48.508;9.052;2023-03-07T03:02:58;5.00;6.40
516;DHT22;244;48.508;9.052;2023-03-07T03:05:25;5.00;6.50
516;DHT22;244;48.508;9.052;2023-03-07T03:07:52;4.90;6.50
516;DHT22;244;48.508;9.052;2023-03-07T03:10:19;4.90;6.50
516;DHT22;244;48.508;9.052;2023-03-07T03:12:46;4.80;6.50
516;DHT22;244;48.508;9.052;2023-03-07T03:15:13;4.80;6.60
516;DHT22;244;48.508;9.052;2023-03-07T03:17:41;4.70;6.50
516;DHT22;244;48.508;9.052;2023-03-07T03:20:10;4.70;6.50
516;DHT22;244;48.508;9.052;2023-03-07T03:22:37;4.70;6.50
516;DHT22;244;48.508;9.052;2023-03-07T03:25:05;4.70;6.50
516;DHT22;244;48.508;9.052;2023-03-07T03:27:34;4.70;6.50
516;DHT22;244;48.508;9.052;2023-03-07T03:30:02;4.80;6.50
516;DHT22;244;48.508;9.052;2023-03-07T03:32:30;4.80;6.50
516;DHT22;244;48.508;9.052;2023-03-07T03:34:59;4.80;6.40
516;DHT22;244;48.508;9.052;2023-03-07T03:37:26;4.90;6.40
516;DHT22;244;48.508;9.052;2023-03-07T03:39:53;4.90;6.30
516;DHT22;244;48.508;9.052;2023-03-07T03:42:20;5.00;6.30
516;DHT22;244;48.508;9.052;2023-03-07T03:44:47;5.00;6.20
516;DHT22;244;48.508;9.052;2023-03-07T03:47:14;5.10;6.20
516;DHT22;244;48.508;9.052;2023-03-07T03:49:41;5.10;6.10
516;DHT22;244;48.508;9.052;2023-03-07T03:52:10;5.10;6.10
516;DHT22;244;48.508;9.052;2023-03-07T03:54:37;5.20;6.10
516;DHT22;244;48.508;9.052;2023-03-07T03:57:04;5.20;6.10
516;DHT22;244;48.508;9.052;2023-03-07T03:59:31;5.20;6.00
516;DHT22;244;48.508;9.052;2023-03-07T04:01:58;5.30;6.10
516;DHT22;244;48.508;9.052;2023-03-07T04:04:25;5.30;6.10
516;DHT22;244;48.508;9.052;2023-03-07T04:06:51;5.30;6.00
516;DHT22;244;48.508;9.052;2023-03-07T04:09:20;5.40;6.00
516;DHT22;244;48.508;9.052;2023-03-07T04:11:47;5.40;6.00
516;DHT22;244;48.508;9.052;2023-03-07T04:14:14;5.40;6.00
516;DHT22;244;48.508;9.052;2023-03-07T04:16:41;5.40;5.90
516;DHT22;244;48.508;9.052;2023-03-07T04:19:09;5.40;5.90
516;DHT22;244;48.508;9.052;2023-03-07T04:21:37;5.40;5.80
516;DHT22;244;48.508;9.052;2023-03-07T04:24:05;5.50;5.90
516;DHT22;244;48.508;9.052;2023-03-07T04:26:35;5.50;5.80
516;DHT22;244;48.508;9.052;2023-03-07T04:29:03;5.50;5.70
516;DHT22;244;48.508;9.052;2023-03-07T04:31:30;5.50;5.70
516;DHT22;244;48.508;9.052;2023-03-07T04:33:57;5.40;5.70
516;DHT22;244;48.508;9.052;2023-03-07T04:36:24;5.50;5.70
516;DHT22;244;48.508;9.052;2023-03-07T04:38:51;5.50;5.60
516;DHT22;244;48.508;9.052;2023-03-07T04:41:19;5.50;5.60
516;DHT22;244;48.508;9.052;2023-03-07T04:43:49;5.50;5.50
516;DHT22;244;48.508;9.052;2023-03-07T04:46:17;5.50;5.50
516;DHT22;244;48.508;9.052;2023-03-07T04:48:44;5.60;5.50
516;DHT22;244;48.508;9.052;2023-03-07T04:51:11;5.60;5.40
516;DHT22;244;48.508;9.052;2023-03-07T04:53:39;5.60;5.40
516;DHT22;244;48.508;9.052;2023-03-07T04:56:07;5.60;5.30
516;DHT22;244;48.508;9.052;2023-03-07T04:58:35;5.60;5.30
516;DHT22;244;48.508;9.052;2023-03-07T05:01:04;5.60;5.20
516;DHT22;244;48.508;9.052;2023-03-07T05:03:32;5.60;5.20
516;DHT22;244;48.508;9.052;2023-03-07T05:06:01;5.60;5.10
516;DHT22;244;48.508;9.052;2023-03-07T05:08:28;5.60;5.10
516;DHT22;244;48.508;9.052;2023-03-07T05:10:55;5.60;5.60
516;DHT22;244;48.508;9.052;2023-03-07T05:13:22;5.60;5.00
516;DHT22;244;48.508;9.052;2023-03-07T05:15:50;5.60;4.90
516;DHT22;244;48.508;9.052;2023-03-07T05:18:19;5.60;4.90
516;DHT22;244;48.508;9.052;2023-03-07T05:20:47;5.60;4.90
516;DHT22;244;48.508;9.052;2023-03-07T05:23:14;5.60;4.90
516;DHT22;244;48.508;9.052;2023-03-07T05:25:41;5.60;4.80
516;DHT22;244;48.508;9.052;2023-03-07T05:28:08;5.60;4.70
516;DHT22;244;48.508;9.052;2023-03-07T05:30:35;5.60;4.70
516;DHT22;244;48.508;9.052;2023-03-07T05:33:02;5.50;4.70
516;DHT22;244;48.508;9.052;2023-03-07T05:35:31;5.50;4.70
516;DHT22;244;48.508;9.052;2023-03-07T05:37:59;5.40;4.80
516;DHT22;244;48.508;9.052;2023-03-07T05:40:26;5.40;4.80
516;DHT22;244;48.508;9.052;2023-03-07T05:42:53;5.30;4.80
516;DHT22;244;48.508;9.052;2023-03-07T05:45:20;5.30;4.80
516;DHT22;244;48.508;9.052;2023-03-07T05:47:47;5.30;4.90
516;DHT22;244;48.508;9.052;2023-03-07T05:50:14;5.30;4.90
516;DHT22;244;48.508;9.052;2023-03-07T05:52:42;5.30;5.00
516;DHT22;244;48.508;9.052;2023-03-07T05:55:09;5.20;4.90
516;DHT22;244;48.508;9.052;2023-03-07T05:57:36;5.20;4.90
516;DHT22;244;48.508;9.052;2023-03-07T06:00:04;5.20;5.00
516;DHT22;244;48.508;9.052;2023-03-07T06:02:32;5.20;5.00
516;DHT22;244;48.508;9.052;2023-03-07T06:04:59;5.30;5.00
516;DHT22;244;48.508;9.052;2023-03-07T06:07:26;5.30;5.00
516;DHT22;244;48.508;9.052;2023-03-07T06:09:55;5.30;4.90
516;DHT22;244;48.508;9.052;2023-03-07T06:12:21;5.30;4.80
516;DHT22;244;48.508;9.052;2023-03-07T06:14:48;5.30;4.80
516;DHT22;244;48.508;9.052;2023-03-07T06:17:15;5.40;4.80
516;DHT22;244;48.508;9.052;2023-03-07T06:19:42;5.40;4.70
516;DHT22;244;48.508;9.052;2023-03-07T06:22:09;5.40;4.70
516;DHT22;244;48.508;9.052;2023-03-07T06:24:36;5.50;4.70
516;DHT22;244;48.508;9.052;2023-03-07T06:27:05;5.50;4.60
516;DHT22;244;48.508;9.052;2023-03-07T06:29:32;5.60;4.50
516;DHT22;244;48.508;9.052;2023-03-07T06:31:59;5.60;4.50
516;DHT22;244;48.508;9.052;2023-03-07T06:34:26;5.70;4.40
516;DHT22;244;48.508;9.052;2023-03-07T06:36:53;5.70;4.30
516;DHT22;244;48.508;9.052;2023-03-07T06:39:20;5.80;4.30
516;DHT22;244;48.508;9.052;2023-03-07T06:41:47;5.90;4.30
516;DHT22;244;48.508;9.052;2023-03-07T06:44:16;5.90;4.10
516;DHT22;244;48.508;9.052;2023-03-07T06:46:44;6.00;4.20
516;DHT22;244;48.508;9.052;2023-03-07T06:49:11;6.10;4.20
516;DHT22;244;48.508;9.052;2023-03-07T06:51:38;6.20;4.30
516;DHT22;244;48.508;9.052;2023-03-07T06:54:04;6.40;4.40
516;DHT22;244;48.508;9.052;2023-03-07T06:56:31;6.50;4.30
516;DHT22;244;48.508;9.052;2023-03-07T06:58:59;6.60;4.00
516;DHT22;244;48.508;9.052;2023-03-07T07:01:28;6.80;3.90
516;DHT22;244;48.508;9.052;2023-03-07T07:03:55;6.90;3.80
516;DHT22;244;48.508;9.052;2023-03-07T07:06:22;7.00;3.70
516;DHT22;244;48.508;9.052;2023-03-07T07:08:53;7.10;4.30
516;DHT22;244;48.508;9.052;2023-03-07T07:11:20;7.30;3.60
516;DHT22;244;48.508;9.052;2023-03-07T07:13:47;7.40;3.50
516;DHT22;244;48.508;9.052;2023-03-07T07:16:16;7.50;3.40
516;DHT22;244;48.508;9.052;2023-03-07T07:18:45;7.60;3.20
516;DHT22;244;48.508;9.052;2023-03-07T07:21:15;7.70;3.20
516;DHT22;244;48.508;9.052;2023-03-07T07:23:42;7.70;3.10
516;DHT22;244;48.508;9.052;2023-03-07T07:26:09;7.80;3.00
516;DHT22;244;48.508;9.052;2023-03-07T07:28:36;7.80;3.00
516;DHT22;244;48.508;9.052;2023-03-07T07:31:03;7.80;3.00
516;DHT22;244;48.508;9.052;2023-03-07T07:33:31;7.80;2.90
516;DHT22;244;48.508;9.052;2023-03-07T07:35:59;7.80;2.80
516;DHT22;244;48.508;9.052;2023-03-07T07:38:26;7.80;2.80
516;DHT22;244;48.508;9.052;2023-03-07T07:40:53;7.80;2.80
516;DHT22;244;48.508;9.052;2023-03-07T07:43:20;7.80;2.70
516;DHT22;244;48.508;9.052;2023-03-07T07:45:47;7.80;2.50
516;DHT22;244;48.508;9.052;2023-03-07T07:48:15;7.80;2.50
516;DHT22;244;48.508;9.052;2023-03-07T07:50:42;7.90;2.40
516;DHT22;244;48.508;9.052;2023-03-07T07:53:10;7.90;2.40
516;DHT22;244;48.508;9.052;2023-03-07T07:55:37;7.90;2.20
516;DHT22;244;48.508;9.052;2023-03-07T07:58:04;8.00;2.10
516;DHT22;244;48.508;9.052;2023-03-07T08:00:31;8.00;2.10
516;DHT22;244;48.508;9.052;2023-03-07T08:02:58;8.00;2.00
516;DHT22;244;48.508;9.052;2023-03-07T08:05:26;8.00;1.90
516;DHT22;244;48.508;9.052;2023-03-07T08:07:52;8.00;1.90
516;DHT22;244;48.508;9.052;2023-03-07T08:10:23;8.00;1.80
516;DHT22;244;48.508;9.052;2023-03-07T08:12:50;8.00;1.80
516;DHT22;244;48.508;9.052;2023-03-07T08:15:17;8.00;1.70
516;DHT22;244;48.508;9.052;2023-03-07T08:17:46;8.10;1.60
516;DHT22;244;48.508;9.052;2023-03-07T08:20:13;8.20;1.30
516;DHT22;244;48.508;9.052;2023-03-07T08:22:40;8.20;1.00
516;DHT22;244;48.508;9.052;2023-03-07T08:25:14;8.30;1.00
516;DHT22;244;48.508;9.052;2023-03-07T08:27:44;8.40;1.10
516;DHT22;244;48.508;9.052;2023-03-07T08:30:12;8.50;1.00
516;DHT22;244;48.508;9.052;2023-03-07T08:32:39;8.60;1.00
516;DHT22;244;48.508;9.052;2023-03-07T08:35:07;8.60;1.00
516;DHT22;244;48.508;9.052;2023-03-07T08:37:35;8.70;1.00
516;DHT22;244;48.508;9.052;2023-03-07T08:40:02;8.80;1.00
516;DHT22;244;48.508;9.052;2023-03-07T08:42:29;8.80;1.00
516;DHT22;244;48.508;9.052;2023-03-07T08:44:59;8.80;1.00
516;DHT22;244;48.508;9.052;2023-03-07T08:47:26;8.80;1.00
516;DHT22;244;48.508;9.052;2023-03-07T08:49:53;8.90;1.00
516;DHT22;244;48.508;9.052;2023-03-07T08:52:20;9.00;1.00
516;DHT22;244;48.508;9.052;2023-03-07T08:54:47;9.10;1.00
516;DHT22;244;48.508;9.052;2023-03-07T08:57:14;9.10;1.00
516;DHT22;244;48.508;9.052;2023-03-07T08:59:41;9.10;1.00
516;DHT22;244;48.508;9.052;2023-03-07T09:02:10;9.10;1.00
516;DHT22;244;48.508;9.052;2023-03-07T09:04:38;9.00;1.00
516;DHT22;244;48.508;9.052;2023-03-07T09:07:05;8.90;1.00
516;DHT22;244;48.508;9.052;2023-03-07T09:09:32;8.90;1.00
516;DHT22;244;48.508;9.052;2023-03-07T09:11:59;8.80;1.00
516;DHT22;244;48.508;9.052;2023-03-07T09:14:26;8.80;1.00
516;DHT22;244;48.508;9.052;2023-03-07T09:16:53;8.80;1.00
516;DHT22;244;48.508;9.052;2023-03-07T09:19:21;8.70;1.00
516;DHT22;244;48.508;9.052;2023-03-07T09:21:50;8.70;1.00
516;DHT22;244;48.508;9.052;2023-03-07T09:24:16;8.80;1.00
516;DHT22;244;48.508;9.052;2023-03-07T09:26:43;8.80;1.00
516;DHT22;244;48.508;9.052;2023-03-07T09:29:10;8.80;1.00
516;DHT22;244;48.508;9.052;2023-03-07T09:31:38;8.80;1.00
516;DHT22;244;48.508;9.052;2023-03-07T09:34:06;8.90;1.00
516;DHT22;244;48.508;9.052;2023-03-07T09:36:34;8.90;1.00
516;DHT22;244;48.508;9.052;2023-03-07T09:39:02;9.00;1.00
516;DHT22;244;48.508;9.052;2023-03-07T09:41:53;9.00;1.00
516;DHT22;244;48.508;9.052;2023-03-07T09:44:30;9.00;1.00
516;DHT22;244;48.508;9.052;2023-03-07T09:47:07;8.90;1.00
516;DHT22;244;48.508;9.052;2023-03-07T09:49:43;9.00;1.00
516;DHT22;244;48.508;9.052;2023-03-07T09:52:15;9.00;1.00
516;DHT22;244;48.508;9.052;2023-03-07T09:54:45;9.00;1.00
516;DHT22;244;48.508;9.052;2023-03-07T09:57:20;9.00;1.00
516;DHT22;244;48.508;9.052;2023-03-07T09:59:53;9.00;1.00
516;DHT22;244;48.508;9.052;2023-03-07T10:02:26;9.00;1.00
516;DHT22;244;48.508;9.052;2023-03-07T10:04:57;9.10;1.00
516;DHT22;244;48.508;9.052;2023-03-07T10:07:27;9.10;1.00
516;DHT22;244;48.508;9.052;2023-03-07T10:09:59;9.10;1.00
516;DHT22;244;48.508;9.052;2023-03-07T10:12:46;9.00;1.00
516;DHT22;244;48.508;9.052;2023-03-07T10:15:31;8.80;1.00
516;DHT22;244;48.508;9.052;2023-03-07T10:18:13;8.80;1.00
516;DHT22;244;48.508;9.052;2023-03-07T10:20:45;8.80;1.00
516;DHT22;244;48.508;9.052;2023-03-07T10:23:30;8.80;1.00
516;DHT22;244;48.508;9.052;2023-03-07T10:26:06;8.80;1.00
516;DHT22;244;48.508;9.052;2023-03-07T10:28:37;8.90;1.00
516;DHT22;244;48.508;9.052;2023-03-07T10:31:16;8.90;1.00
516;DHT22;244;48.508;9.052;2023-03-07T10:33:46;8.90;1.00
516;DHT22;244;48.508;9.052;2023-03-07T10:36:17;9.00;1.00
516;DHT22;244;48.508;9.052;2023-03-07T10:38:54;9.00;1.00
516;DHT22;244;48.508;9.052;2023-03-07T10:41:22;8.90;1.00
516;DHT22;244;48.508;9.052;2023-03-07T10:43:50;9.10;1.00
516;DHT22;244;48.508;9.052;2023-03-07T10:46:20;9.20;1.00
516;DHT22;244;48.508;9.052;2023-03-07T10:48:49;9.20;1.00
516;DHT22;244;48.508;9.052;2023-03-07T10:51:30;9.20;1.00
516;DHT22;244;48.508;9.052;2023-03-07T10:54:01;9.20;1.00
516;DHT22;244;48.508;9.052;2023-03-07T10:56:30;9.20;1.00
516;DHT22;244;48.508;9.052;2023-03-07T10:59:02;9.10;1.00
516;DHT22;244;48.508;9.052;2023-03-07T11:01:30;9.00;1.00
516;DHT22;244;48.508;9.052;2023-03-07T11:03:59;9.00;1.00
516;DHT22;244;48.508;9.052;2023-03-07T11:06:31;8.90;1.00
516;DHT22;244;48.508;9.052;2023-03-07T11:09:13;8.90;1.00
516;DHT22;244;48.508;9.052;2023-03-07T11:11:47;8.80;1.00
516;DHT22;244;48.508;9.052;2023-03-07T11:14:15;8.80;1.00
516;DHT22;244;48.508;9.052;2023-03-07T11:16:48;8.70;1.00
516;DHT22;244;48.508;9.052;2023-03-07T11:19:34;8.80;1.00
516;DHT22;244;48.508;9.052;2023-03-07T11:22:03;8.80;1.00
516;DHT22;244;48.508;9.052;2023-03-07T11:24:36;8.90;1.00
516;DHT22;244;48.508;9.052;2023-03-07T11:27:04;8.90;1.00
516;DHT22;244;48.508;9.052;2023-03-07T11:29:31;8.90;1.00
516;DHT22;244;48.508;9.052;2023-03-07T11:32:04;9.00;1.00
516;DHT22;244;48.508;9.052;2023-03-07T11:34:42;9.10;1.00
516;DHT22;244;48.508;9.052;2023-03-07T11:37:21;9.10;1.00
516;DHT22;244;48.508;9.052;2023-03-07T11:40:00;9.10;1.00
516;DHT22;244;48.508;9.052;2023-03-07T11:42:32;9.10;1.00
516;DHT22;244;48.508;9.052;2023-03-07T11:45:05;9.10;1.00
516;DHT22;244;48.508;9.052;2023-03-07T11:47:38;9.10;1.00
516;DHT22;244;48.508;9.052;2023-03-07T11:50:21;9.10;1.00
516;DHT22;244;48.508;9.052;2023-03-07T11:53:04;9.10;1.00
516;DHT22;244;48.508;9.052;2023-03-07T11:55:38;9.20;1.00
516;DHT22;244;48.508;9.052;2023-03-07T11:58:24;9.10;1.00
516;DHT22;244;48.508;9.052;2023-03-07T12:01:09;9.20;1.00
516;DHT22;244;48.508;9.052;2023-03-07T12:06:46;9.30;1.00
516;DHT22;244;48.508;9.052;2023-03-07T12:09:24;9.50;1.00
516;DHT22;244;48.508;9.052;2023-03-07T12:12:23;9.50;1.00
516;DHT22;244;48.508;9.052;2023-03-07T12:15:03;9.60;1.00
516;DHT22;244;48.508;9.052;2023-03-07T12:17:40;9.60;1.00
516;DHT22;244;48.508;9.052;2023-03-07T12:20:34;9.60;1.00
516;DHT22;244;48.508;9.052;2023-03-07T12:23:08;9.70;1.00
516;DHT22;244;48.508;9.052;2023-03-07T12:25:38;9.60;1.00
516;DHT22;244;48.508;9.052;2023-03-07T12:28:16;9.50;1.00
516;DHT22;244;48.508;9.052;2023-03-07T12:31:02;9.60;1.00
516;DHT22;244;48.508;9.052;2023-03-07T12:33:46;9.70;1.00
516;DHT22;244;48.508;9.052;2023-03-07T12:36:21;9.80;1.00
516;DHT22;244;48.508;9.052;2023-03-07T12:38:53;10.00;1.00
516;DHT22;244;48.508;9.052;2023-03-07T12:44:12;10.40;1.00
516;DHT22;244;48.508;9.052;2023-03-07T12:46:46;10.60;1.00
516;DHT22;244;48.508;9.052;2023-03-07T12:49:19;10.70;1.00
516;DHT22;244;48.508;9.052;2023-03-07T12:51:51;10.80;1.00
516;DHT22;244;48.508;9.052;2023-03-07T12:54:24;11.00;1.00
516;DHT22;244;48.508;9.052;2023-03-07T12:56:56;11.20;1.00
516;DHT22;244;48.508;9.052;2023-03-07T12:59:26;11.20;1.00
516;DHT22;244;48.508;9.052;2023-03-07T13:01:59;11.20;1.00
516;DHT22;244;48.508;9.052;2023-03-07T13:04:31;11.30;1.00
516;DHT22;244;48.508;9.052;2023-03-07T13:07:05;11.30;1.00
516;DHT22;244;48.508;9.052;2023-03-07T13:09:33;11.30;1.00
516;DHT22;244;48.508;9.052;2023-03-07T13:12:33;11.40;1.00
516;DHT22;244;48.508;9.052;2023-03-07T13:15:04;11.30;1.00
516;DHT22;244;48.508;9.052;2023-03-07T13:17:54;11.30;1.00
516;DHT22;244;48.508;9.052;2023-03-07T13:20:42;11.20;1.00
516;DHT22;244;48.508;9.052;2023-03-07T13:23:24;11.00;1.00
516;DHT22;244;48.508;9.052;2023-03-07T13:26:09;10.90;1.00
516;DHT22;244;48.508;9.052;2023-03-07T13:28:41;10.80;1.00
516;DHT22;244;48.508;9.052;2023-03-07T13:31:52;10.70;1.00
516;DHT22;244;48.508;9.052;2023-03-07T13:37:53;10.50;1.00
516;DHT22;244;48.508;9.052;2023-03-07T13:46:47;10.70;1.00
516;DHT22;244;48.508;9.052;2023-03-07T13:49:40;10.80;1.00
516;DHT22;244;48.508;9.052;2023-03-07T13:52:41;10.90;1.00
516;DHT22;244;48.508;9.052;2023-03-07T13:55:28;11.00;1.00
516;DHT22;244;48.508;9.052;2023-03-07T13:57:59;11.10;1.00
516;DHT22;244;48.508;9.052;2023-03-07T14:00:33;11.20;1.00
516;DHT22;244;48.508;9.052;2023-03-07T14:03:15;11.20;1.00
516;DHT22;244;48.508;9.052;2023-03-07T14:05:46;11.10;1.00
516;DHT22;244;48.508;9.052;2023-03-07T14:08:13;11.20;1.00
516;DHT22;244;48.508;9.052;2023-03-07T14:10:43;11.20;1.00
516;DHT22;244;48.508;9.052;2023-03-07T14:16:25;11.40;1.00
516;DHT22;244;48.508;9.052;2023-03-07T14:19:03;11.60;1.00
516;DHT22;244;48.508;9.052;2023-03-07T14:21:43;11.70;1.00
516;DHT22;244;48.508;9.052;2023-03-07T14:24:23;11.80;1.00
516;DHT22;244;48.508;9.052;2023-03-07T14:26:55;12.00;1.00
516;DHT22;244;48.508;9.052;2023-03-07T14:29:24;12.00;1.00
516;DHT22;244;48.508;9.052;2023-03-07T14:31:52;12.00;1.00
516;DHT22;244;48.508;9.052;2023-03-07T14:34:27;12.10;1.00
516;DHT22;244;48.508;9.052;2023-03-07T14:36:57;12.10;1.00
516;DHT22;244;48.508;9.052;2023-03-07T14:39:31;12.10;1.00
516;DHT22;244;48.508;9.052;2023-03-07T14:42:09;12.00;1.00
516;DHT22;244;48.508;9.052;2023-03-07T14:44:51;11.80;1.00
516;DHT22;244;48.508;9.052;2023-03-07T14:47:41;11.60;1.00
516;DHT22;244;48.508;9.052;2023-03-07T14:50:14;11.40;1.00
516;DHT22;244;48.508;9.052;2023-03-07T14:52:42;11.30;1.00
516;DHT22;244;48.508;9.052;2023-03-07T14:55:15;11.20;1.00
516;DHT22;244;48.508;9.052;2023-03-07T14:57:44;11.20;1.00
516;DHT22;244;48.508;9.052;2023-03-07T15:00:24;11.20;1.00
516;DHT22;244;48.508;9.052;2023-03-07T15:02:54;11.20;1.00
516;DHT22;244;48.508;9.052;2023-03-07T15:05:25;11.20;1.00
516;DHT22;244;48.508;9.052;2023-03-07T15:07:52;11.20;1.00
516;DHT22;244;48.508;9.052;2023-03-07T15:10:22;11.30;1.00
516;DHT22;244;48.508;9.052;2023-03-07T15:12:52;11.20;1.00
516;DHT22;244;48.508;9.052;2023-03-07T15:15:24;11.30;1.00
516;DHT22;244;48.508;9.052;2023-03-07T15:17:54;11.30;1.00
516;DHT22;244;48.508;9.052;2023-03-07T15:20:26;11.50;1.00
516;DHT22;244;48.508;9.052;2023-03-07T15:23:00;11.80;1.00
516;DHT22;244;48.508;9.052;2023-03-07T15:25:28;12.10;1.00
516;DHT22;244;48.508;9.052;2023-03-07T15:27:58;12.10;1.00
516;DHT22;244;48.508;9.052;2023-03-07T15:30:27;12.30;1.00
516;DHT22;244;48.508;9.052;2023-03-07T15:33:13;12.80;1.00
516;DHT22;244;48.508;9.052;2023-03-07T15:35:43;13.30;1.00
516;DHT22;244;48.508;9.052;2023-03-07T15:38:15;13.20;1.00
516;DHT22;244;48.508;9.052;2023-03-07T15:40:45;13.20;1.00
516;DHT22;244;48.508;9.052;2023-03-07T15:43:23;13.40;1.00
516;DHT22;244;48.508;9.052;2023-03-07T15:46:00;13.70;1.00
516;DHT22;244;48.508;9.052;2023-03-07T15:48:36;14.00;1.00
516;DHT22;244;48.508;9.052;2023-03-07T15:51:11;14.10;1.00
516;DHT22;244;48.508;9.052;2023-03-07T15:53:40;14.20;1.00
516;DHT22;244;48.508;9.052;2023-03-07T15:56:20;14.40;1.00
516;DHT22;244;48.508;9.052;2023-03-07T15:58:48;14.80;1.00
516;DHT22;244;48.508;9.052;2023-03-07T16:01:19;15.00;1.00
516;DHT22;244;48.508;9.052;2023-03-07T16:03:48;14.90;1.00
516;DHT22;244;48.508;9.052;2023-03-07T16:06:31;14.60;1.00
516;DHT22;244;48.508;9.052;2023-03-07T16:08:58;14.20;1.00
516;DHT22;244;48.508;9.052;2023-03-07T16:11:25;13.90;1.00
516;DHT22;244;48.508;9.052;2023-03-07T16:13:52;13.60;1.00
516;DHT22;244;48.508;9.052;2023-03-07T16:16:21;13.40;1.00
516;DHT22;244;48.508;9.052;2023-03-07T16:18:49;13.30;1.00
516;DHT22;244;48.508;9.052;2023-03-07T16:21:18;13.10;1.00
516;DHT22;244;48.508;9.052;2023-03-07T16:23:46;12.70;1.00
516;DHT22;244;48.508;9.052;2023-03-07T16:26:17;12.40;1.00
516;DHT22;244;48.508;9.052;2023-03-07T16:28:45;12.00;1.00
516;DHT22;244;48.508;9.052;2023-03-07T16:31:14;11.60;1.00
516;DHT22;244;48.508;9.052;2023-03-07T16:33:41;11.30;1.00
516;DHT22;244;48.508;9.052;2023-03-07T16:36:09;10.90;1.00
516;DHT22;244;48.508;9.052;2023-03-07T16:38:36;10.60;1.00
516;DHT22;244;48.508;9.052;2023-03-07T16:41:10;10.40;1.00
516;DHT22;244;48.508;9.052;2023-03-07T16:43:38;10.10;1.00
516;DHT22;244;48.508;9.052;2023-03-07T16:46:10;9.90;1.00
516;DHT22;244;48.508;9.052;2023-03-07T16:48:37;9.70;1.00
516;DHT22;244;48.508;9.052;2023-03-07T16:51:05;9.50;1.00
516;DHT22;244;48.508;9.052;2023-03-07T16:53:31;9.40;1.00
516;DHT22;244;48.508;9.052;2023-03-07T16:55:58;9.20;1.00
516;DHT22;244;48.508;9.052;2023-03-07T16:58:29;9.00;1.00
516;DHT22;244;48.508;9.052;2023-03-07T17:00:58;8.90;1.00
516;DHT22;244;48.508;9.052;2023-03-07T17:03:25;8.80;1.00
516;DHT22;244;48.508;9.052;2023-03-07T17:05:54;8.60;1.00
516;DHT22;244;48.508;9.052;2023-03-07T17:08:21;8.50;1.00
516;DHT22;244;48.508;9.052;2023-03-07T17:10:48;8.40;1.00
516;DHT22;244;48.508;9.052;2023-03-07T17:13:16;8.30;1.00
516;DHT22;244;48.508;9.052;2023-03-07T17:15:45;8.20;1.00
516;DHT22;244;48.508;9.052;2023-03-07T17:18:12;8.20;1.00
516;DHT22;244;48.508;9.052;2023-03-07T17:20:39;8.10;1.00
516;DHT22;244;48.508;9.052;2023-03-07T17:23:06;8.00;1.00
516;DHT22;244;48.508;9.052;2023-03-07T17:25:33;8.00;1.00
516;DHT22;244;48.508;9.052;2023-03-07T17:28:03;7.90;1.00
516;DHT22;244;48.508;9.052;2023-03-07T17:30:31;7.90;1.00
516;DHT22;244;48.508;9.052;2023-03-07T17:32:59;7.80;1.00
516;DHT22;244;48.508;9.052;2023-03-07T17:35:27;7.80;1.00
516;DHT22;244;48.508;9.052;2023-03-07T17:37:55;7.70;1.00
516;DHT22;244;48.508;9.052;2023-03-07T17:40:22;7.60;1.00
516;DHT22;244;48.508;9.052;2023-03-07T17:42:50;7.50;1.00
516;DHT22;244;48.508;9.052;2023-03-07T17:45:19;7.50;1.00
516;DHT22;244;48.508;9.052;2023-03-07T17:47:49;7.50;1.00
516;DHT22;244;48.508;9.052;2023-03-07T17:50:17;7.50;1.00